Wetterstation Vordersexau
Wetterdaten: Woche 13.03.17 - 19.03.17 (KW11)
Datum Zeit Temp. A. Feuchte A. Luftdruck Regen Wind Richtung Taupunkt Windchill Windben
13.03.2017 00:00 2,5 C 83 % 1014,2 hPa 0,0 l/m 0,0 km/h O-NO -0,1 C 2,5 C 0,0 km/h
13.03.2017 01:00 1,6 C 84 % 1015,1 hPa 0,0 l/m 0,0 km/h O-NO -0,8 C 1,6 C 0,0 km/h
13.03.2017 02:00 1,4 C 84 % 1015,5 hPa 0,0 l/m 0,0 km/h O-NO -1,0 C 1,4 C 0,0 km/h
13.03.2017 03:00 0,5 C 85 % 1015,9 hPa 0,0 l/m 0,0 km/h O-NO -1,7 C 0,5 C 0,0 km/h
13.03.2017 04:00 0,2 C 85 % 1016,5 hPa 0,0 l/m 0,0 km/h O-NO -2,0 C 0,2 C 0,0 km/h
13.03.2017 05:00 -0,2 C 86 % 1017,3 hPa 0,0 l/m 0,0 km/h O-NO -2,3 C -0,2 C 0,0 km/h
13.03.2017 06:00 -0,5 C 86 % 1018,3 hPa 0,0 l/m 0,0 km/h O-NO -2,5 C -0,5 C 0,0 km/h
13.03.2017 07:00 2,4 C 82 % 1019,3 hPa 0,0 l/m 0,0 km/h O-NO -0,4 C 2,4 C 0,0 km/h
13.03.2017 08:00 8,9 C 72 % 1019,8 hPa 0,0 l/m 0,0 km/h N-NW 4,1 C 8,9 C 0,0 km/h
13.03.2017 09:00 12,4 C 61 % 1020,6 hPa 0,0 l/m 0,0 km/h N-NW 5,1 C 12,4 C 0,0 km/h
13.03.2017 10:00 12,4 C 61 % 1020,6 hPa 0,0 l/m 0,0 km/h N 5,1 C 12,4 C 0,0 km/h
13.03.2017 11:00 14,8 C 55 % 1020,9 hPa 0,0 l/m 0,0 km/h NW 5,8 C 14,8 C 0,0 km/h
13.03.2017 12:00 17,1 C 50 % 1021,3 hPa 0,0 l/m 0,0 km/h N-NO 6,6 C 17,1 C 0,0 km/h
13.03.2017 13:00 17,5 C 47 % 1021,3 hPa 0,0 l/m 4,5 km/h W-NW 6,1 C 17,5 C 2,5 km/h
13.03.2017 14:00 17,9 C 47 % 1021,8 hPa 0,0 l/m 3,9 km/h W-NW 6,4 C 17,9 C 2,2 km/h
13.03.2017 15:00 19,5 C 39 % 1021,5 hPa 0,0 l/m 0,0 km/h N 5,2 C 19,5 C 0,0 km/h
13.03.2017 16:00 18,9 C 40 % 1022,0 hPa 0,0 l/m 0,0 km/h W-NW 5,0 C 18,9 C 0,0 km/h
13.03.2017 17:00 20,9 C 34 % 1022,8 hPa 0,0 l/m 0,0 km/h N 4,4 C 20,9 C 0,0 km/h
13.03.2017 18:00 17,6 C 33 % 1023,6 hPa 0,0 l/m 0,0 km/h N-NO 1,1 C 17,6 C 0,0 km/h
13.03.2017 19:00 8,1 C 47 % 1024,5 hPa 0,0 l/m 0,0 km/h O -2,5 C 8,1 C 0,0 km/h
13.03.2017 20:00 5,9 C 63 % 1025,0 hPa 0,0 l/m 0,0 km/h O-SO -0,6 C 5,9 C 0,0 km/h
13.03.2017 21:00 5,4 C 69 % 1025,6 hPa 0,0 l/m 0,0 km/h O-SO 0,2 C 5,4 C 0,0 km/h
13.03.2017 22:00 3,8 C 72 % 1026,7 hPa 0,0 l/m 0,0 km/h O-NO -0,8 C 3,8 C 0,0 km/h
13.03.2017 23:00 3,3 C 75 % 1027,0 hPa 0,0 l/m 0,0 km/h O -0,7 C 3,3 C 0,0 km/h
14.03.2017 00:00 2,9 C 76 % 1027,5 hPa 0,0 l/m 0,0 km/h O -0,9 C 2,9 C 0,0 km/h
14.03.2017 01:00 2,8 C 78 % 1027,9 hPa 0,0 l/m 3,9 km/h O-SO -0,6 C 2,8 C 2,2 km/h
14.03.2017 02:00 2,3 C 78 % 1028,0 hPa 0,0 l/m 0,0 km/h O-SO -1,1 C 2,3 C 0,0 km/h
14.03.2017 03:00 1,5 C 79 % 1028,4 hPa 0,0 l/m 0,0 km/h O-NO -1,7 C 1,5 C 0,0 km/h
14.03.2017 04:00 1,1 C 81 % 1028,5 hPa 0,0 l/m 0,0 km/h O-NO -1,8 C 1,1 C 0,0 km/h
14.03.2017 05:00 0,3 C 83 % 1028,4 hPa 0,0 l/m 0,0 km/h NO -2,2 C 0,3 C 0,0 km/h
14.03.2017 06:00 0,1 C 84 % 1028,9 hPa 0,0 l/m 0,0 km/h O-NO -2,3 C 0,1 C 0,0 km/h
14.03.2017 07:00 0,1 C 84 % 1029,7 hPa 0,0 l/m 0,0 km/h O -2,3 C 0,1 C 0,0 km/h
14.03.2017 08:00 2,9 C 85 % 1029,7 hPa 0,0 l/m 0,0 km/h O-SO 0,6 C 2,9 C 0,0 km/h
14.03.2017 09:00 8,9 C 75 % 1029,9 hPa 0,0 l/m 0,0 km/h W-NW 4,7 C 8,9 C 0,0 km/h
14.03.2017 10:00 13,3 C 60 % 1030,7 hPa 0,0 l/m 0,0 km/h SO 5,7 C 13,3 C 0,0 km/h
14.03.2017 11:00 15,1 C 52 % 1030,3 hPa 0,0 l/m 0,0 km/h W 5,3 C 15,1 C 0,0 km/h
14.03.2017 12:00 17,9 C 45 % 1029,9 hPa 0,0 l/m 0,0 km/h W-SW 5,8 C 17,9 C 0,0 km/h
14.03.2017 13:00 19,2 C 43 % 1029,3 hPa 0,0 l/m 1,9 km/h W-NW 6,3 C 19,2 C 1,1 km/h
14.03.2017 14:00 20,4 C 38 % 1029,2 hPa 0,0 l/m 0,0 km/h W 5,6 C 20,4 C 0,0 km/h
14.03.2017 15:00 22,3 C 34 % 1028,6 hPa 0,0 l/m 0,0 km/h N 5,7 C 22,3 C 0,0 km/h
14.03.2017 16:00 25,4 C 28 % 1028,3 hPa 0,0 l/m 0,0 km/h W 5,6 C 25,4 C 0,0 km/h
14.03.2017 17:00 24,4 C 28 % 1027,7 hPa 0,0 l/m 0,0 km/h NW 4,7 C 24,4 C 0,0 km/h
14.03.2017 18:00 19,6 C 33 % 1028,3 hPa 0,0 l/m 0,0 km/h N-NW 2,9 C 19,6 C 0,0 km/h
14.03.2017 19:00 9,9 C 54 % 1028,7 hPa 0,0 l/m 0,0 km/h O 1,0 C 9,9 C 0,0 km/h
14.03.2017 20:00 7,6 C 64 % 1028,8 hPa 0,0 l/m 0,0 km/h O-SO 1,2 C 7,6 C 0,0 km/h
14.03.2017 21:00 7,1 C 69 % 1029,5 hPa 0,0 l/m 0,0 km/h O 1,8 C 7,1 C 0,0 km/h
14.03.2017 22:00 6,3 C 73 % 1029,6 hPa 0,0 l/m 0,0 km/h O-NO 1,8 C 6,3 C 0,0 km/h
14.03.2017 23:00 5,6 C 77 % 1029,9 hPa 0,0 l/m 0,0 km/h NO 1,9 C 5,6 C 0,0 km/h
15.03.2017 00:00 5,1 C 79 % 1029,9 hPa 0,0 l/m 0,0 km/h NO 1,8 C 5,1 C 0,0 km/h
15.03.2017 01:00 4,6 C 80 % 1029,2 hPa 0,0 l/m 0,0 km/h O 1,5 C 4,6 C 0,0 km/h
15.03.2017 02:00 4,1 C 82 % 1029,1 hPa 0,0 l/m 0,0 km/h O 1,3 C 4,1 C 0,0 km/h
15.03.2017 03:00 4,1 C 83 % 1029,2 hPa 0,0 l/m 0,0 km/h O-SO 1,5 C 4,1 C 0,0 km/h
15.03.2017 04:00 3,9 C 84 % 1029,1 hPa 0,0 l/m 6,5 km/h O 1,4 C 3,8 C 3,6 km/h
15.03.2017 05:00 2,9 C 84 % 1028,9 hPa 0,0 l/m 0,0 km/h O-SO 0,5 C 2,9 C 0,0 km/h
15.03.2017 06:00 2,7 C 85 % 1028,8 hPa 0,0 l/m 0,0 km/h O-SO 0,4 C 2,7 C 0,0 km/h
15.03.2017 07:00 2,3 C 85 % 1028,5 hPa 0,0 l/m 0,0 km/h O-SO 0,0 C 2,3 C 0,0 km/h
15.03.2017 08:00 5,0 C 85 % 1029,4 hPa 0,0 l/m 0,0 km/h O-SO 2,7 C 5,0 C 0,0 km/h
15.03.2017 09:00 11,2 C 73 % 1029,7 hPa 0,0 l/m 0,0 km/h N 6,5 C 11,2 C 0,0 km/h
15.03.2017 10:00 13,3 C 62 % 1029,7 hPa 0,0 l/m 0,0 km/h W-NW 6,2 C 13,3 C 0,0 km/h
15.03.2017 11:00 15,4 C 57 % 1029,3 hPa 0,0 l/m 0,0 km/h W 6,9 C 15,4 C 0,0 km/h
15.03.2017 12:00 18,6 C 53 % 1028,8 hPa 0,0 l/m 0,0 km/h W-NW 8,8 C 18,6 C 0,0 km/h
15.03.2017 13:00 18,5 C 51 % 1028,3 hPa 0,0 l/m 5,2 km/h W 8,2 C 18,5 C 2,9 km/h
15.03.2017 14:00 19,8 C 48 % 1027,3 hPa 0,0 l/m 10,4 km/h W-NW 8,5 C 18,3 C 5,8 km/h
15.03.2017 15:00 20,3 C 47 % 1026,8 hPa 0,0 l/m 0,0 km/h W 8,6 C 20,3 C 0,0 km/h
15.03.2017 16:00 22,0 C 43 % 1026,1 hPa 0,0 l/m 5,8 km/h W-SW 8,8 C 22,0 C 3,2 km/h
15.03.2017 17:00 20,2 C 47 % 1025,7 hPa 0,0 l/m 1,3 km/h SO 8,5 C 20,2 C 0,7 km/h
15.03.2017 18:00 18,5 C 52 % 1025,7 hPa 0,0 l/m 0,0 km/h O-SO 8,5 C 18,5 C 0,0 km/h
15.03.2017 19:00 11,2 C 64 % 1025,9 hPa 0,0 l/m 0,0 km/h O-SO 4,6 C 11,2 C 0,0 km/h
15.03.2017 20:00 8,5 C 74 % 1026,1 hPa 0,0 l/m 0,0 km/h O-SO 4,1 C 8,5 C 0,0 km/h
15.03.2017 21:00 7,6 C 78 % 1026,2 hPa 0,0 l/m 0,0 km/h O-SO 4,0 C 7,6 C 0,0 km/h
15.03.2017 22:00 6,9 C 81 % 1026,1 hPa 0,0 l/m 0,0 km/h NO 3,9 C 6,9 C 0,0 km/h
15.03.2017 23:00 6,1 C 84 % 1026,1 hPa 0,0 l/m 0,0 km/h NO 3,6 C 6,1 C 0,0 km/h
16.03.2017 02:00 3,3 C 85 % 1024,9 hPa 0,0 l/m 0,0 km/h NO 1,0 C 3,3 C 0,0 km/h
16.03.2017 03:00 2,9 C 85 % 1024,6 hPa 0,0 l/m 0,0 km/h NO 0,6 C 2,9 C 0,0 km/h
16.03.2017 04:00 2,5 C 85 % 1024,4 hPa 0,0 l/m 0,0 km/h NO 0,2 C 2,5 C 0,0 km/h
16.03.2017 05:00 2,1 C 86 % 1024,0 hPa 0,0 l/m 0,0 km/h NO 0,0 C 2,1 C 0,0 km/h
16.03.2017 06:00 1,9 C 85 % 1023,7 hPa 0,0 l/m 0,0 km/h NO -0,3 C 1,9 C 0,0 km/h
16.03.2017 07:00 1,6 C 85 % 1023,8 hPa 0,0 l/m 0,0 km/h NO -0,6 C 1,6 C 0,0 km/h
16.03.2017 08:00 4,4 C 75 % 1024,1 hPa 0,0 l/m 0,0 km/h NO 0,4 C 4,4 C 0,0 km/h
16.03.2017 09:00 12,8 C 75 % 1024,0 hPa 0,0 l/m 0,0 km/h W-NW 8,5 C 12,8 C 0,0 km/h
16.03.2017 10:00 15,0 C 65 % 1023,3 hPa 0,0 l/m 0,0 km/h N-NW 8,5 C 15,0 C 0,0 km/h
16.03.2017 11:00 17,1 C 56 % 1022,6 hPa 0,0 l/m 0,0 km/h W-NW 8,3 C 17,1 C 0,0 km/h
16.03.2017 12:00 20,1 C 50 % 1021,9 hPa 0,0 l/m 0,6 km/h NW 9,3 C 20,1 C 0,4 km/h
16.03.2017 13:00 20,6 C 48 % 1021,1 hPa 0,0 l/m 0,0 km/h N 9,2 C 20,6 C 0,0 km/h
16.03.2017 14:00 22,4 C 45 % 1020,0 hPa 0,0 l/m 0,0 km/h W-SW 9,9 C 22,4 C 0,0 km/h
16.03.2017 15:00 23,5 C 43 % 1019,6 hPa 0,0 l/m 4,5 km/h W 10,2 C 23,5 C 2,5 km/h
16.03.2017 16:00 24,8 C 39 % 1018,9 hPa 0,0 l/m 0,0 km/h W 9,9 C 24,8 C 0,0 km/h
16.03.2017 17:00 25,3 C 36 % 1018,2 hPa 0,0 l/m 0,0 km/h W-NW 9,1 C 25,3 C 0,0 km/h
16.03.2017 18:00 22,7 C 33 % 1017,6 hPa 0,0 l/m 0,0 km/h W-NW 5,6 C 22,7 C 0,0 km/h
16.03.2017 19:00 13,0 C 55 % 1017,7 hPa 0,0 l/m 0,0 km/h W-NW 4,2 C 13,0 C 0,0 km/h
16.03.2017 20:00 10,4 C 67 % 1017,6 hPa 0,0 l/m 0,0 km/h W-NW 4,5 C 10,4 C 0,0 km/h
16.03.2017 21:00 7,9 C 73 % 1017,7 hPa 0,0 l/m 0,0 km/h W-NW 3,4 C 7,9 C 0,0 km/h
16.03.2017 22:00 7,5 C 79 % 1017,8 hPa 0,0 l/m 0,0 km/h NW 4,1 C 7,5 C 0,0 km/h
16.03.2017 23:00 6,7 C 80 % 1017,6 hPa 0,0 l/m 0,0 km/h O 3,5 C 6,7 C 0,0 km/h
17.03.2017 00:00 6,3 C 82 % 1017,0 hPa 0,0 l/m 0,0 km/h O 3,5 C 6,3 C 0,0 km/h
17.03.2017 01:00 5,4 C 84 % 1016,7 hPa 0,0 l/m 0,0 km/h O 2,9 C 5,4 C 0,0 km/h
17.03.2017 02:00 5,2 C 84 % 1016,5 hPa 0,0 l/m 0,0 km/h O-SO 2,7 C 5,2 C 0,0 km/h
17.03.2017 03:00 4,9 C 85 % 1016,0 hPa 0,0 l/m 5,8 km/h O-SO 2,6 C 4,9 C 3,2 km/h
17.03.2017 04:00 3,9 C 85 % 1015,8 hPa 0,0 l/m 0,0 km/h O-SO 1,6 C 3,9 C 0,0 km/h
17.03.2017 05:00 4,1 C 85 % 1015,4 hPa 0,0 l/m 0,0 km/h O-SO 1,8 C 4,1 C 0,0 km/h
17.03.2017 06:00 3,8 C 85 % 1015,4 hPa 0,0 l/m 0,0 km/h O-SO 1,5 C 3,8 C 0,0 km/h
17.03.2017 07:00 4,1 C 85 % 1015,7 hPa 0,0 l/m 0,0 km/h O-SO 1,8 C 4,1 C 0,0 km/h
17.03.2017 08:00 6,9 C 83 % 1015,5 hPa 0,0 l/m 0,0 km/h O 4,2 C 6,9 C 0,0 km/h
17.03.2017 09:00 13,8 C 75 % 1015,4 hPa 0,0 l/m 0,0 km/h S-SW 9,4 C 13,8 C 0,0 km/h
17.03.2017 10:00 18,1 C 59 % 1015,4 hPa 0,0 l/m 6,5 km/h S 10,0 C 18,1 C 3,6 km/h
17.03.2017 11:00 19,5 C 54 % 1014,9 hPa 0,0 l/m 16,2 km/h SW 9,9 C 16,4 C 9,0 km/h
17.03.2017 12:00 21,0 C 50 % 1014,1 hPa 0,0 l/m 35,6 km/h S 10,2 C 15,6 C 19,8 km/h
17.03.2017 13:00 21,4 C 48 % 1013,5 hPa 0,0 l/m 16,2 km/h W-SW 9,9 C 18,7 C 9,0 km/h
17.03.2017 14:00 23,3 C 42 % 1012,7 hPa 0,0 l/m 35,6 km/h W-SW 9,7 C 18,9 C 19,8 km/h
17.03.2017 15:00 24,1 C 40 % 1012,3 hPa 0,0 l/m 19,4 km/h W-NW 9,6 C 21,6 C 10,8 km/h
17.03.2017 16:00 24,1 C 34 % 1011,9 hPa 0,0 l/m 22,7 km/h N 7,2 C 21,2 C 12,6 km/h
17.03.2017 17:00 18,1 C 55 % 1013,3 hPa 0,0 l/m 20,1 km/h W 8,9 C 13,7 C 11,2 km/h
17.03.2017 18:00 13,9 C 63 % 1014,0 hPa 0,0 l/m 6,5 km/h W-NW 7,0 C 13,9 C 3,6 km/h
17.03.2017 19:00 11,8 C 67 % 1014,2 hPa 0,0 l/m 0,0 km/h NW 5,9 C 11,8 C 0,0 km/h
17.03.2017 20:00 10,1 C 70 % 1015,1 hPa 0,0 l/m 0,0 km/h N-NO 4,9 C 10,1 C 0,0 km/h
17.03.2017 21:00 8,5 C 73 % 1015,2 hPa 0,0 l/m 0,0 km/h N-NO 3,9 C 8,5 C 0,0 km/h
17.03.2017 22:00 9,3 C 72 % 1015,2 hPa 0,0 l/m 0,0 km/h N-NO 4,5 C 9,3 C 0,0 km/h
17.03.2017 23:00 9,1 C 73 % 1015,0 hPa 0,0 l/m 0,0 km/h SW 4,5 C 9,1 C 0,0 km/h
18.03.2017 00:00 9,1 C 76 % 1014,3 hPa 0,0 l/m 7,8 km/h SW 5,1 C 8,1 C 4,3 km/h
18.03.2017 01:00 8,7 C 77 % 1013,7 hPa 0,0 l/m 11,0 km/h W-SW 4,9 C 5,6 C 6,1 km/h
18.03.2017 02:00 8,9 C 76 % 1013,6 hPa 0,0 l/m 21,4 km/h SW 4,9 C 1,4 C 11,9 km/h
18.03.2017 03:00 8,5 C 77 % 1013,4 hPa 0,0 l/m 25,9 km/h SW 4,7 C -0,4 C 14,4 km/h
18.03.2017 04:00 8,4 C 77 % 1013,2 hPa 0,0 l/m 23,3 km/h W-SW 4,6 C 0,2 C 13,0 km/h
18.03.2017 05:00 8,7 C 76 % 1012,9 hPa 0,0 l/m 20,7 km/h S 4,7 C 1,4 C 11,5 km/h
18.03.2017 06:00 8,7 C 75 % 1012,9 hPa 0,0 l/m 17,5 km/h SW 4,5 C 2,5 C 9,7 km/h
18.03.2017 07:00 8,9 C 75 % 1012,4 hPa 0,0 l/m 22,7 km/h W 4,7 C 1,0 C 12,6 km/h
18.03.2017 08:00 8,9 C 77 % 1012,5 hPa 0,0 l/m 29,8 km/h SW 5,1 C -0,8 C 16,6 km/h
18.03.2017 09:00 8,8 C 77 % 1012,7 hPa 0,0 l/m 26,6 km/h S-SW 5,0 C -0,2 C 14,8 km/h
18.03.2017 10:00 8,2 C 80 % 1012,3 hPa 0,0 l/m 46,0 km/h W-SW 5,0 C -4,6 C 25,6 km/h
18.03.2017 11:00 8,0 C 83 % 1012,8 hPa 0,0 l/m 29,2 km/h S-SW 5,3 C -2,0 C 16,2 km/h
18.03.2017 12:00 7,8 C 84 % 1013,0 hPa 0,0 l/m 17,5 km/h SW 5,3 C 1,4 C 9,7 km/h
18.03.2017 13:00 8,5 C 84 % 1012,7 hPa 0,0 l/m 34,3 km/h SW 6,0 C -2,3 C 19,1 km/h
18.03.2017 14:00 9,4 C 84 % 1012,5 hPa 0,0 l/m 27,2 km/h SW 6,8 C 0,5 C 15,1 km/h
18.03.2017 15:00 9,9 C 82 % 1012,4 hPa 0,0 l/m 30,5 km/h S-SW 7,0 C 0,4 C 16,9 km/h
18.03.2017 16:00 10,3 C 81 % 1012,3 hPa 0,0 l/m 22,0 km/h W-SW 7,2 C 3,1 C 12,2 km/h
18.03.2017 17:00 10,4 C 81 % 1012,5 hPa 0,0 l/m 33,7 km/h SW 7,3 C 0,5 C 18,7 km/h
18.03.2017 18:00 9,9 C 83 % 1013,1 hPa 0,0 l/m 37,6 km/h S-SW 7,2 C -0,9 C 20,9 km/h
18.03.2017 19:00 9,9 C 82 % 1013,1 hPa 0,0 l/m 27,9 km/h W-SW 7,0 C 1,0 C 15,5 km/h
18.03.2017 20:00 9,8 C 83 % 1013,6 hPa 0,0 l/m 20,7 km/h W-SW 7,1 C 2,8 C 11,5 km/h
18.03.2017 21:00 9,8 C 83 % 1013,5 hPa 0,0 l/m 22,0 km/h SW 7,1 C 2,4 C 12,2 km/h
18.03.2017 22:00 9,4 C 84 % 1014,0 hPa 0,0 l/m 20,7 km/h W-SW 6,8 C 2,3 C 11,5 km/h
18.03.2017 23:00 9,6 C 85 % 1014,0 hPa 0,5 l/m 18,8 km/h S-SW 7,2 C 3,2 C 10,4 km/h
19.03.2017 00:00 9,4 C 85 % 1013,4 hPa 0,0 l/m 20,1 km/h S 7,0 C 2,5 C 11,2 km/h
19.03.2017 01:00 9,9 C 84 % 1013,9 hPa 0,0 l/m 18,1 km/h SW 7,3 C 3,8 C 10,1 km/h
19.03.2017 02:00 10,2 C 84 % 1013,5 hPa 0,0 l/m 9,7 km/h W 7,6 C 8,0 C 5,4 km/h
19.03.2017 03:00 10,3 C 84 % 1013,3 hPa 0,0 l/m 13,0 km/h W-SW 7,7 C 6,4 C 7,2 km/h
19.03.2017 04:00 10,4 C 84 % 1013,3 hPa 0,0 l/m 24,0 km/h SW 7,8 C 2,6 C 13,3 km/h
19.03.2017 05:00 10,5 C 83 % 1013,4 hPa 0,0 l/m 11,0 km/h S-SW 7,7 C 7,6 C 6,1 km/h
19.03.2017 06:00 10,5 C 82 % 1013,4 hPa 0,0 l/m 17,5 km/h SW 7,6 C 4,8 C 9,7 km/h
19.03.2017 07:00 10,8 C 82 % 1013,2 hPa 0,0 l/m 22,7 km/h SW 7,9 C 3,5 C 12,6 km/h
19.03.2017 08:00 10,9 C 82 % 1013,7 hPa 0,0 l/m 11,0 km/h S-SW 7,9 C 8,1 C 6,1 km/h
19.03.2017 09:00 11,2 C 81 % 1014,1 hPa 0,0 l/m 23,3 km/h W-SW 8,1 C 3,9 C 13,0 km/h
19.03.2017 10:00 12,5 C 81 % 1013,8 hPa 0,0 l/m 20,1 km/h SW 9,3 C 6,5 C 11,2 km/h
19.03.2017 11:00 12,9 C 77 % 1013,6 hPa 0,0 l/m 20,1 km/h SW 9,0 C 7,0 C 11,2 km/h
19.03.2017 12:00 12,9 C 77 % 1013,0 hPa 0,0 l/m 20,1 km/h W 9,0 C 7,0 C 11,2 km/h
19.03.2017 13:00 14,1 C 75 % 1013,0 hPa 0,0 l/m 25,3 km/h S-SW 9,7 C 7,3 C 14,0 km/h
19.03.2017 14:00 17,6 C 67 % 1012,4 hPa 0,0 l/m 13,6 km/h SW 11,4 C 14,8 C 7,6 km/h
19.03.2017 15:00 16,1 C 67 % 1012,0 hPa 0,0 l/m 17,5 km/h W-SW 10,0 C 11,8 C 9,7 km/h
19.03.2017 16:00 14,9 C 71 % 1012,1 hPa 0,0 l/m 42,8 km/h SW 9,7 C 5,9 C 23,8 km/h
19.03.2017 17:00 14,1 C 73 % 1011,5 hPa 0,0 l/m 0,0 km/h SW 9,3 C 14,1 C 0,0 km/h
19.03.2017 18:00 12,7 C 77 % 1011,6 hPa 0,0 l/m 13,0 km/h S 8,8 C 9,2 C 7,2 km/h
19.03.2017 19:00 11,9 C 80 % 1011,6 hPa 0,0 l/m 1,9 km/h SW 8,6 C 11,9 C 1,1 km/h
19.03.2017 20:00 11,3 C 81 % 1012,3 hPa 0,0 l/m 16,8 km/h W-SW 8,2 C 6,0 C 9,4 km/h
19.03.2017 21:00 11,4 C 81 % 1012,8 hPa 0,0 l/m 1,3 km/h S-SW 8,3 C 11,4 C 0,7 km/h
19.03.2017 22:00 11,8 C 81 % 1012,6 hPa 0,0 l/m 0,0 km/h W-SW 8,6 C 11,8 C 0,0 km/h
19.03.2017 23:00 11,6 C 82 % 1012,6 hPa 0,0 l/m 1,9 km/h W-SW 8,6 C 11,6 C 1,1 km/h
Min-Datum _ 13.03.17 14.03.17 19.03.17 - 13.03.17 - 13.03.17 18.03.17 13.03.17
_ Min-Zeit 06:57 16:57 17:57 - 00:57 - 06:57 10:57 00:57
Minimum _ -0,5 C 28 % 1011,5 hPa - 0,0 km/h - -2,5 C -4,6 C 0,0 km/h
Max-Datum _ 14.03.17 13.03.17 14.03.17 18.03.17 18.03.17 - 19.03.17 14.03.17 18.03.17
_ Max-Zeit 16:57 05:57 10:57 23:57 10:57 - 14:57 16:57 10:57
Maximum _ 25,4 C 86 % 1030,7 hPa 0,5 l/m 46,0 km/h
W-SW
- 11,4 C 25,4 C 25,6 km/h
W-SW
Durchschnitt _ 10,7 C 70 % 1019,9 hPa #0,5 l/m 7,2 km/h O-SO 4,8 C 8,7 C 4,0 km/h
www.sexauwetter.de